sensor_id;sensor_type;location;lat;lon;timestamp;P1;durP1;ratioP1;P2;durP2;ratioP2
51686;SDS011;37774;52.192;4.584;2024-02-26T00:00:54;4.50;;;2.40;;
51686;SDS011;37774;52.192;4.584;2024-02-26T00:03:39;4.35;;;2.60;;
51686;SDS011;37774;52.192;4.584;2024-02-26T00:06:27;4.60;;;2.50;;
51686;SDS011;37774;52.192;4.584;2024-02-26T00:09:12;8.60;;;2.60;;
51686;SDS011;37774;52.192;4.584;2024-02-26T00:11:57;7.95;;;3.17;;
51686;SDS011;37774;52.192;4.584;2024-02-26T00:14:43;6.82;;;3.05;;
51686;SDS011;37774;52.192;4.584;2024-02-26T00:17:29;6.53;;;2.50;;
51686;SDS011;37774;52.192;4.584;2024-02-26T00:20:14;4.28;;;2.20;;
51686;SDS011;37774;52.192;4.584;2024-02-26T00:23:01;6.53;;;2.83;;
51686;SDS011;37774;52.192;4.584;2024-02-26T00:25:47;4.53;;;2.42;;
51686;SDS011;37774;52.192;4.584;2024-02-26T00:28:32;3.20;;;2.35;;
51686;SDS011;37774;52.192;4.584;2024-02-26T00:31:17;3.53;;;2.30;;
51686;SDS011;37774;52.192;4.584;2024-02-26T00:34:02;5.43;;;3.15;;
51686;SDS011;37774;52.192;4.584;2024-02-26T00:36:47;7.38;;;4.03;;
51686;SDS011;37774;52.192;4.584;2024-02-26T00:39:33;5.10;;;2.92;;
51686;SDS011;37774;52.192;4.584;2024-02-26T00:42:19;7.10;;;3.38;;
51686;SDS011;37774;52.192;4.584;2024-02-26T00:45:04;3.60;;;2.50;;
51686;SDS011;37774;52.192;4.584;2024-02-26T00:47:50;5.53;;;3.00;;
51686;SDS011;37774;52.192;4.584;2024-02-26T00:50:35;5.25;;;2.72;;
51686;SDS011;37774;52.192;4.584;2024-02-26T00:53:20;5.25;;;2.78;;
51686;SDS011;37774;52.192;4.584;2024-02-26T00:56:06;7.82;;;2.80;;
51686;SDS011;37774;52.192;4.584;2024-02-26T00:58:52;4.07;;;2.63;;
51686;SDS011;37774;52.192;4.584;2024-02-26T01:01:37;4.50;;;2.72;;
51686;SDS011;37774;52.192;4.584;2024-02-26T01:04:22;13.40;;;3.67;;
51686;SDS011;37774;52.192;4.584;2024-02-26T01:07:07;5.60;;;2.78;;
51686;SDS011;37774;52.192;4.584;2024-02-26T01:09:52;6.15;;;3.05;;
51686;SDS011;37774;52.192;4.584;2024-02-26T01:12:38;4.18;;;2.47;;
51686;SDS011;37774;52.192;4.584;2024-02-26T01:15:24;5.05;;;3.28;;
51686;SDS011;37774;52.192;4.584;2024-02-26T01:18:09;4.00;;;2.63;;
51686;SDS011;37774;52.192;4.584;2024-02-26T01:20:54;9.20;;;3.55;;
51686;SDS011;37774;52.192;4.584;2024-02-26T01:23:39;6.13;;;3.22;;
51686;SDS011;37774;52.192;4.584;2024-02-26T01:26:24;7.18;;;3.67;;
51686;SDS011;37774;52.192;4.584;2024-02-26T01:29:10;5.88;;;3.70;;
51686;SDS011;37774;52.192;4.584;2024-02-26T01:31:56;10.80;;;3.95;;
51686;SDS011;37774;52.192;4.584;2024-02-26T01:34:40;6.50;;;4.30;;
51686;SDS011;37774;52.192;4.584;2024-02-26T01:37:25;7.55;;;4.20;;
51686;SDS011;37774;52.192;4.584;2024-02-26T01:40:11;11.00;;;4.45;;
51686;SDS011;37774;52.192;4.584;2024-02-26T01:42:56;13.63;;;5.18;;
51686;SDS011;37774;52.192;4.584;2024-02-26T01:45:43;7.93;;;4.32;;
51686;SDS011;37774;52.192;4.584;2024-02-26T01:48:28;5.65;;;3.70;;
51686;SDS011;37774;52.192;4.584;2024-02-26T01:51:13;5.30;;;3.42;;
51686;SDS011;37774;52.192;4.584;2024-02-26T01:53:59;8.88;;;4.75;;
51686;SDS011;37774;52.192;4.584;2024-02-26T01:56:46;14.73;;;5.35;;
51686;SDS011;37774;52.192;4.584;2024-02-26T01:59:31;11.48;;;4.65;;
51686;SDS011;37774;52.192;4.584;2024-02-26T02:02:17;15.07;;;5.22;;
51686;SDS011;37774;52.192;4.584;2024-02-26T02:05:03;11.52;;;5.25;;
51686;SDS011;37774;52.192;4.584;2024-02-26T02:07:48;9.13;;;4.63;;
51686;SDS011;37774;52.192;4.584;2024-02-26T02:10:33;16.58;;;5.55;;
51686;SDS011;37774;52.192;4.584;2024-02-26T02:13:19;11.73;;;5.97;;
51686;SDS011;37774;52.192;4.584;2024-02-26T02:16:04;10.85;;;5.13;;
51686;SDS011;37774;52.192;4.584;2024-02-26T02:18:51;6.93;;;3.53;;
51686;SDS011;37774;52.192;4.584;2024-02-26T02:21:37;7.63;;;4.38;;
51686;SDS011;37774;52.192;4.584;2024-02-26T02:24:22;5.93;;;3.08;;
51686;SDS011;37774;52.192;4.584;2024-02-26T02:27:07;10.18;;;3.10;;
51686;SDS011;37774;52.192;4.584;2024-02-26T02:29:52;9.00;;;3.60;;
51686;SDS011;37774;52.192;4.584;2024-02-26T02:32:37;10.13;;;4.78;;
51686;SDS011;37774;52.192;4.584;2024-02-26T02:35:24;5.32;;;3.33;;
51686;SDS011;37774;52.192;4.584;2024-02-26T02:38:11;5.35;;;3.08;;
51686;SDS011;37774;52.192;4.584;2024-02-26T02:40:55;9.18;;;4.30;;
51686;SDS011;37774;52.192;4.584;2024-02-26T02:43:40;9.73;;;4.90;;
51686;SDS011;37774;52.192;4.584;2024-02-26T02:46:26;5.47;;;2.92;;
51686;SDS011;37774;52.192;4.584;2024-02-26T02:49:11;7.50;;;3.92;;
51686;SDS011;37774;52.192;4.584;2024-02-26T02:51:56;6.95;;;2.80;;
51686;SDS011;37774;52.192;4.584;2024-02-26T02:54:43;11.65;;;4.88;;
51686;SDS011;37774;52.192;4.584;2024-02-26T02:57:28;6.28;;;3.90;;
51686;SDS011;37774;52.192;4.584;2024-02-26T03:00:14;14.30;;;4.15;;
51686;SDS011;37774;52.192;4.584;2024-02-26T03:03:00;13.13;;;5.15;;
51686;SDS011;37774;52.192;4.584;2024-02-26T03:05:45;9.48;;;5.38;;
51686;SDS011;37774;52.192;4.584;2024-02-26T03:08:30;15.75;;;6.00;;
51686;SDS011;37774;52.192;4.584;2024-02-26T03:11:17;12.20;;;6.10;;
51686;SDS011;37774;52.192;4.584;2024-02-26T03:14:02;10.05;;;5.32;;
51686;SDS011;37774;52.192;4.584;2024-02-26T03:16:48;13.77;;;4.80;;
51686;SDS011;37774;52.192;4.584;2024-02-26T03:19:33;9.70;;;4.97;;
51686;SDS011;37774;52.192;4.584;2024-02-26T03:22:18;8.38;;;4.93;;
51686;SDS011;37774;52.192;4.584;2024-02-26T03:25:04;10.38;;;5.20;;
51686;SDS011;37774;52.192;4.584;2024-02-26T03:27:50;12.70;;;5.07;;
51686;SDS011;37774;52.192;4.584;2024-02-26T03:30:35;12.88;;;6.20;;
51686;SDS011;37774;52.192;4.584;2024-02-26T03:33:20;18.48;;;5.63;;
51686;SDS011;37774;52.192;4.584;2024-02-26T03:36:05;12.27;;;6.43;;
51686;SDS011;37774;52.192;4.584;2024-02-26T03:38:51;13.18;;;6.70;;
51686;SDS011;37774;52.192;4.584;2024-02-26T03:41:36;10.95;;;5.70;;
51686;SDS011;37774;52.192;4.584;2024-02-26T03:44:22;11.43;;;5.03;;
51686;SDS011;37774;52.192;4.584;2024-02-26T03:47:07;13.52;;;6.57;;
51686;SDS011;37774;52.192;4.584;2024-02-26T03:49:52;13.23;;;6.10;;
51686;SDS011;37774;52.192;4.584;2024-02-26T03:52:37;13.10;;;5.63;;
51686;SDS011;37774;52.192;4.584;2024-02-26T03:55:22;14.07;;;6.22;;
51686;SDS011;37774;52.192;4.584;2024-02-26T03:58:08;13.35;;;6.05;;
51686;SDS011;37774;52.192;4.584;2024-02-26T04:00:55;24.15;;;7.07;;
51686;SDS011;37774;52.192;4.584;2024-02-26T04:03:40;11.43;;;4.95;;
51686;SDS011;37774;52.192;4.584;2024-02-26T04:06:25;18.13;;;6.95;;
51686;SDS011;37774;52.192;4.584;2024-02-26T04:09:10;12.88;;;6.05;;
51686;SDS011;37774;52.192;4.584;2024-02-26T04:11:55;17.63;;;7.22;;
51686;SDS011;37774;52.192;4.584;2024-02-26T04:14:40;15.07;;;7.28;;
51686;SDS011;37774;52.192;4.584;2024-02-26T04:17:27;18.17;;;6.53;;
51686;SDS011;37774;52.192;4.584;2024-02-26T04:20:13;14.85;;;6.43;;
51686;SDS011;37774;52.192;4.584;2024-02-26T04:22:58;18.23;;;8.02;;
51686;SDS011;37774;52.192;4.584;2024-02-26T04:25:43;16.08;;;7.40;;
51686;SDS011;37774;52.192;4.584;2024-02-26T04:28:28;18.27;;;8.23;;
51686;SDS011;37774;52.192;4.584;2024-02-26T04:31:13;14.02;;;6.95;;
51686;SDS011;37774;52.192;4.584;2024-02-26T04:34:00;17.77;;;7.50;;
51686;SDS011;37774;52.192;4.584;2024-02-26T04:36:45;13.38;;;6.03;;
51686;SDS011;37774;52.192;4.584;2024-02-26T04:39:31;19.10;;;8.15;;
51686;SDS011;37774;52.192;4.584;2024-02-26T04:42:16;16.45;;;7.03;;
51686;SDS011;37774;52.192;4.584;2024-02-26T04:45:01;22.73;;;7.53;;
51686;SDS011;37774;52.192;4.584;2024-02-26T04:47:47;17.23;;;7.28;;
51686;SDS011;37774;52.192;4.584;2024-02-26T04:50:33;16.58;;;7.40;;
51686;SDS011;37774;52.192;4.584;2024-02-26T04:53:18;17.45;;;7.50;;
51686;SDS011;37774;52.192;4.584;2024-02-26T04:56:04;21.33;;;8.30;;
51686;SDS011;37774;52.192;4.584;2024-02-26T04:58:49;16.58;;;6.35;;
51686;SDS011;37774;52.192;4.584;2024-02-26T05:01:34;18.83;;;8.18;;
51686;SDS011;37774;52.192;4.584;2024-02-26T05:04:19;20.27;;;7.90;;
51686;SDS011;37774;52.192;4.584;2024-02-26T05:07:06;21.33;;;8.82;;
51686;SDS011;37774;52.192;4.584;2024-02-26T05:09:51;24.08;;;8.70;;
51686;SDS011;37774;52.192;4.584;2024-02-26T05:12:36;19.58;;;8.85;;
51686;SDS011;37774;52.192;4.584;2024-02-26T05:15:21;20.52;;;8.95;;
51686;SDS011;37774;52.192;4.584;2024-02-26T05:18:06;18.23;;;7.57;;
51686;SDS011;37774;52.192;4.584;2024-02-26T05:20:51;19.92;;;8.60;;
51686;SDS011;37774;52.192;4.584;2024-02-26T05:23:38;21.15;;;7.82;;
51686;SDS011;37774;52.192;4.584;2024-02-26T05:26:23;23.88;;;8.82;;
51686;SDS011;37774;52.192;4.584;2024-02-26T05:29:08;20.75;;;8.15;;
51686;SDS011;37774;52.192;4.584;2024-02-26T05:31:53;22.65;;;9.77;;
51686;SDS011;37774;52.192;4.584;2024-02-26T05:34:39;20.23;;;8.98;;
51686;SDS011;37774;52.192;4.584;2024-02-26T05:37:25;20.23;;;8.57;;
51686;SDS011;37774;52.192;4.584;2024-02-26T05:40:12;24.92;;;9.27;;
51686;SDS011;37774;52.192;4.584;2024-02-26T05:45:42;29.65;;;8.63;;
51686;SDS011;37774;52.192;4.584;2024-02-26T05:48:27;26.88;;;9.55;;
51686;SDS011;37774;52.192;4.584;2024-02-26T05:51:13;21.27;;;9.52;;
51686;SDS011;37774;52.192;4.584;2024-02-26T05:53:58;22.50;;;9.68;;
51686;SDS011;37774;52.192;4.584;2024-02-26T05:56:46;26.02;;;10.23;;
51686;SDS011;37774;52.192;4.584;2024-02-26T05:59:31;27.42;;;10.48;;
51686;SDS011;37774;52.192;4.584;2024-02-26T06:02:16;18.58;;;9.32;;
51686;SDS011;37774;52.192;4.584;2024-02-26T06:05:02;20.65;;;8.35;;
51686;SDS011;37774;52.192;4.584;2024-02-26T06:07:47;18.25;;;8.00;;
51686;SDS011;37774;52.192;4.584;2024-02-26T06:10:32;29.48;;;10.75;;
51686;SDS011;37774;52.192;4.584;2024-02-26T06:13:19;17.23;;;7.72;;
51686;SDS011;37774;52.192;4.584;2024-02-26T06:16:05;21.38;;;9.40;;
51686;SDS011;37774;52.192;4.584;2024-02-26T06:18:50;17.05;;;7.75;;
51686;SDS011;37774;52.192;4.584;2024-02-26T06:21:35;20.35;;;9.30;;
51686;SDS011;37774;52.192;4.584;2024-02-26T06:24:20;27.55;;;10.35;;
51686;SDS011;37774;52.192;4.584;2024-02-26T06:27:06;28.45;;;11.30;;
51686;SDS011;37774;52.192;4.584;2024-02-26T06:29:53;39.75;;;9.20;;
51686;SDS011;37774;52.192;4.584;2024-02-26T06:32:38;19.52;;;9.27;;
51686;SDS011;37774;52.192;4.584;2024-02-26T06:35:23;17.38;;;7.35;;
51686;SDS011;37774;52.192;4.584;2024-02-26T06:38:08;24.63;;;10.90;;
51686;SDS011;37774;52.192;4.584;2024-02-26T06:40:55;20.83;;;8.52;;
51686;SDS011;37774;52.192;4.584;2024-02-26T06:43:40;21.13;;;8.80;;
51686;SDS011;37774;52.192;4.584;2024-02-26T06:46:27;15.13;;;7.53;;
51686;SDS011;37774;52.192;4.584;2024-02-26T06:49:14;20.20;;;8.85;;
51686;SDS011;37774;52.192;4.584;2024-02-26T06:51:59;27.98;;;9.73;;
51686;SDS011;37774;52.192;4.584;2024-02-26T06:54:44;18.20;;;7.78;;
51686;SDS011;37774;52.192;4.584;2024-02-26T06:57:29;18.60;;;9.05;;
51686;SDS011;37774;52.192;4.584;2024-02-26T07:00:15;19.50;;;9.40;;
51686;SDS011;37774;52.192;4.584;2024-02-26T07:03:01;9.55;;;4.43;;
51686;SDS011;37774;52.192;4.584;2024-02-26T07:05:46;13.48;;;6.75;;
51686;SDS011;37774;52.192;4.584;2024-02-26T07:08:31;13.32;;;6.57;;
51686;SDS011;37774;52.192;4.584;2024-02-26T07:11:16;17.17;;;8.32;;
51686;SDS011;37774;52.192;4.584;2024-02-26T07:14:02;20.92;;;8.75;;
51686;SDS011;37774;52.192;4.584;2024-02-26T07:16:48;19.30;;;8.65;;
51686;SDS011;37774;52.192;4.584;2024-02-26T07:19:34;19.52;;;8.55;;
51686;SDS011;37774;52.192;4.584;2024-02-26T07:22:20;14.48;;;6.78;;
51686;SDS011;37774;52.192;4.584;2024-02-26T07:25:05;16.10;;;7.43;;
51686;SDS011;37774;52.192;4.584;2024-02-26T07:27:51;13.60;;;6.45;;
51686;SDS011;37774;52.192;4.584;2024-02-26T07:30:36;15.18;;;7.03;;
51686;SDS011;37774;52.192;4.584;2024-02-26T07:33:22;18.58;;;6.30;;
51686;SDS011;37774;52.192;4.584;2024-02-26T07:36:08;12.80;;;4.55;;
51686;SDS011;37774;52.192;4.584;2024-02-26T07:38:53;9.75;;;3.53;;
51686;SDS011;37774;52.192;4.584;2024-02-26T07:41:38;9.75;;;3.58;;
51686;SDS011;37774;52.192;4.584;2024-02-26T07:44:23;7.53;;;4.10;;
51686;SDS011;37774;52.192;4.584;2024-02-26T07:47:08;9.27;;;4.78;;
51686;SDS011;37774;52.192;4.584;2024-02-26T07:49:54;18.25;;;5.28;;
51686;SDS011;37774;52.192;4.584;2024-02-26T07:52:40;7.43;;;2.85;;
51686;SDS011;37774;52.192;4.584;2024-02-26T07:55:25;10.73;;;5.25;;
51686;SDS011;37774;52.192;4.584;2024-02-26T07:58:10;15.15;;;4.45;;
51686;SDS011;37774;52.192;4.584;2024-02-26T08:00:55;13.68;;;5.95;;
51686;SDS011;37774;52.192;4.584;2024-02-26T08:03:40;7.22;;;3.90;;
51686;SDS011;37774;52.192;4.584;2024-02-26T08:06:25;8.45;;;4.07;;
51686;SDS011;37774;52.192;4.584;2024-02-26T08:09:12;11.70;;;5.00;;
51686;SDS011;37774;52.192;4.584;2024-02-26T08:11:57;6.60;;;2.63;;
51686;SDS011;37774;52.192;4.584;2024-02-26T08:14:42;9.35;;;3.60;;
51686;SDS011;37774;52.192;4.584;2024-02-26T08:17:27;8.50;;;4.00;;
51686;SDS011;37774;52.192;4.584;2024-02-26T08:20:12;11.23;;;4.57;;
51686;SDS011;37774;52.192;4.584;2024-02-26T08:22:57;7.20;;;3.35;;
51686;SDS011;37774;52.192;4.584;2024-02-26T08:25:44;6.47;;;3.55;;
51686;SDS011;37774;52.192;4.584;2024-02-26T08:28:29;7.97;;;4.07;;
51686;SDS011;37774;52.192;4.584;2024-02-26T08:31:14;5.80;;;3.30;;
51686;SDS011;37774;52.192;4.584;2024-02-26T08:33:59;7.85;;;3.60;;
51686;SDS011;37774;52.192;4.584;2024-02-26T08:36:45;5.75;;;3.00;;
51686;SDS011;37774;52.192;4.584;2024-02-26T08:39:30;11.00;;;5.07;;
51686;SDS011;37774;52.192;4.584;2024-02-26T08:42:16;7.95;;;3.70;;
51686;SDS011;37774;52.192;4.584;2024-02-26T08:45:01;4.22;;;2.60;;
51686;SDS011;37774;52.192;4.584;2024-02-26T08:47:47;12.82;;;3.58;;
51686;SDS011;37774;52.192;4.584;2024-02-26T08:50:32;3.85;;;2.38;;
51686;SDS011;37774;52.192;4.584;2024-02-26T08:53:17;11.90;;;3.63;;
51686;SDS011;37774;52.192;4.584;2024-02-26T08:56:02;10.88;;;3.83;;
51686;SDS011;37774;52.192;4.584;2024-02-26T08:58:49;7.45;;;2.85;;
51686;SDS011;37774;52.192;4.584;2024-02-26T09:01:37;5.72;;;2.22;;
51686;SDS011;37774;52.192;4.584;2024-02-26T09:04:22;4.82;;;2.38;;
51686;SDS011;37774;52.192;4.584;2024-02-26T09:07:07;14.27;;;3.83;;
51686;SDS011;37774;52.192;4.584;2024-02-26T09:09:52;8.02;;;2.92;;
51686;SDS011;37774;52.192;4.584;2024-02-26T09:12:37;6.90;;;3.78;;
51686;SDS011;37774;52.192;4.584;2024-02-26T09:15:24;4.88;;;2.67;;
51686;SDS011;37774;52.192;4.584;2024-02-26T09:18:09;7.03;;;3.53;;
51686;SDS011;37774;52.192;4.584;2024-02-26T09:20:54;6.38;;;3.40;;
51686;SDS011;37774;52.192;4.584;2024-02-26T09:23:39;7.57;;;2.92;;
51686;SDS011;37774;52.192;4.584;2024-02-26T09:26:24;9.82;;;3.75;;
51686;SDS011;37774;52.192;4.584;2024-02-26T09:29:09;9.70;;;2.63;;
51686;SDS011;37774;52.192;4.584;2024-02-26T09:31:55;17.75;;;3.30;;
51686;SDS011;37774;52.192;4.584;2024-02-26T09:34:40;14.13;;;3.75;;
51686;SDS011;37774;52.192;4.584;2024-02-26T09:37:26;5.80;;;3.72;;
51686;SDS011;37774;52.192;4.584;2024-02-26T09:40:11;7.22;;;3.47;;
51686;SDS011;37774;52.192;4.584;2024-02-26T09:42:59;4.93;;;2.47;;
51686;SDS011;37774;52.192;4.584;2024-02-26T09:45:44;9.73;;;3.33;;
51686;SDS011;37774;52.192;4.584;2024-02-26T09:48:30;3.75;;;2.15;;
51686;SDS011;37774;52.192;4.584;2024-02-26T09:51:16;5.30;;;2.75;;
51686;SDS011;37774;52.192;4.584;2024-02-26T09:54:01;6.45;;;3.33;;
51686;SDS011;37774;52.192;4.584;2024-02-26T09:56:46;6.35;;;3.40;;
51686;SDS011;37774;52.192;4.584;2024-02-26T09:59:34;7.28;;;3.05;;
51686;SDS011;37774;52.192;4.584;2024-02-26T10:02:20;8.30;;;3.22;;
51686;SDS011;37774;52.192;4.584;2024-02-26T10:05:08;8.55;;;3.72;;
51686;SDS011;37774;52.192;4.584;2024-02-26T10:07:54;5.63;;;3.33;;
51686;SDS011;37774;52.192;4.584;2024-02-26T10:10:41;6.75;;;3.13;;
51686;SDS011;37774;52.192;4.584;2024-02-26T10:13:26;5.22;;;2.95;;
51686;SDS011;37774;52.192;4.584;2024-02-26T10:16:12;9.30;;;3.20;;
51686;SDS011;37774;52.192;4.584;2024-02-26T10:18:57;8.95;;;3.35;;
51686;SDS011;37774;52.192;4.584;2024-02-26T10:21:43;7.32;;;3.55;;
51686;SDS011;37774;52.192;4.584;2024-02-26T10:24:29;6.97;;;3.88;;
51686;SDS011;37774;52.192;4.584;2024-02-26T10:27:14;5.65;;;2.92;;
51686;SDS011;37774;52.192;4.584;2024-02-26T10:30:01;7.43;;;3.08;;
51686;SDS011;37774;52.192;4.584;2024-02-26T10:32:47;7.95;;;2.85;;
51686;SDS011;37774;52.192;4.584;2024-02-26T10:35:33;5.05;;;3.00;;
51686;SDS011;37774;52.192;4.584;2024-02-26T10:38:22;5.03;;;2.88;;
51686;SDS011;37774;52.192;4.584;2024-02-26T10:41:09;5.80;;;3.08;;
51686;SDS011;37774;52.192;4.584;2024-02-26T10:43:58;8.77;;;2.85;;
51686;SDS011;37774;52.192;4.584;2024-02-26T10:46:43;5.00;;;2.40;;
51686;SDS011;37774;52.192;4.584;2024-02-26T10:49:28;5.13;;;2.22;;
51686;SDS011;37774;52.192;4.584;2024-02-26T10:52:13;8.48;;;2.50;;
51686;SDS011;37774;52.192;4.584;2024-02-26T10:55:02;4.90;;;3.13;;
51686;SDS011;37774;52.192;4.584;2024-02-26T10:57:47;6.63;;;2.88;;
51686;SDS011;37774;52.192;4.584;2024-02-26T11:00:33;7.68;;;2.53;;
51686;SDS011;37774;52.192;4.584;2024-02-26T11:03:18;7.95;;;3.47;;
51686;SDS011;37774;52.192;4.584;2024-02-26T11:06:04;5.32;;;2.38;;
51686;SDS011;37774;52.192;4.584;2024-02-26T11:08:49;5.00;;;2.55;;
51686;SDS011;37774;52.192;4.584;2024-02-26T11:11:36;6.57;;;2.70;;
51686;SDS011;37774;52.192;4.584;2024-02-26T11:14:21;9.38;;;4.00;;
51686;SDS011;37774;52.192;4.584;2024-02-26T11:17:09;4.90;;;2.60;;
51686;SDS011;37774;52.192;4.584;2024-02-26T11:19:55;5.43;;;2.22;;
51686;SDS011;37774;52.192;4.584;2024-02-26T11:22:41;9.68;;;2.28;;
51686;SDS011;37774;52.192;4.584;2024-02-26T11:25:26;7.47;;;2.28;;
51686;SDS011;37774;52.192;4.584;2024-02-26T11:28:14;4.55;;;2.47;;
51686;SDS011;37774;52.192;4.584;2024-02-26T11:31:00;6.65;;;2.08;;
51686;SDS011;37774;52.192;4.584;2024-02-26T11:33:45;3.63;;;2.10;;
51686;SDS011;37774;52.192;4.584;2024-02-26T11:36:30;4.32;;;2.30;;
51686;SDS011;37774;52.192;4.584;2024-02-26T11:39:16;3.13;;;1.88;;
51686;SDS011;37774;52.192;4.584;2024-02-26T11:42:04;3.97;;;2.00;;
51686;SDS011;37774;52.192;4.584;2024-02-26T11:44:50;6.32;;;3.20;;
51686;SDS011;37774;52.192;4.584;2024-02-26T11:47:35;3.75;;;2.05;;
51686;SDS011;37774;52.192;4.584;2024-02-26T11:50:34;3.17;;;1.60;;
51686;SDS011;37774;52.192;4.584;2024-02-26T11:53:19;3.75;;;2.03;;
51686;SDS011;37774;52.192;4.584;2024-02-26T11:56:20;10.60;;;2.17;;
51686;SDS011;37774;52.192;4.584;2024-02-26T11:59:09;5.57;;;1.85;;
51686;SDS011;37774;52.192;4.584;2024-02-26T12:01:55;6.40;;;2.17;;
51686;SDS011;37774;52.192;4.584;2024-02-26T12:04:41;3.28;;;1.85;;
51686;SDS011;37774;52.192;4.584;2024-02-26T12:07:26;3.50;;;1.45;;
51686;SDS011;37774;52.192;4.584;2024-02-26T12:10:16;3.97;;;1.85;;
51686;SDS011;37774;52.192;4.584;2024-02-26T12:13:05;12.98;;;2.42;;
51686;SDS011;37774;52.192;4.584;2024-02-26T12:15:54;1.80;;;1.10;;
51686;SDS011;37774;52.192;4.584;2024-02-26T12:18:41;3.20;;;1.58;;
51686;SDS011;37774;52.192;4.584;2024-02-26T12:21:29;5.10;;;2.35;;
51686;SDS011;37774;52.192;4.584;2024-02-26T12:24:14;3.20;;;0.63;;
51686;SDS011;37774;52.192;4.584;2024-02-26T12:27:00;4.77;;;1.87;;
51686;SDS011;37774;52.192;4.584;2024-02-26T12:29:45;3.45;;;1.70;;
51686;SDS011;37774;52.192;4.584;2024-02-26T12:32:30;10.10;;;1.30;;
51686;SDS011;37774;52.192;4.584;2024-02-26T12:35:17;3.65;;;2.00;;
51686;SDS011;37774;52.192;4.584;2024-02-26T12:38:02;3.08;;;1.40;;
51686;SDS011;37774;52.192;4.584;2024-02-26T12:40:49;5.32;;;1.40;;
51686;SDS011;37774;52.192;4.584;2024-02-26T12:43:34;3.85;;;1.65;;
51686;SDS011;37774;52.192;4.584;2024-02-26T12:46:20;5.78;;;1.92;;
51686;SDS011;37774;52.192;4.584;2024-02-26T12:49:05;3.85;;;2.08;;
51686;SDS011;37774;52.192;4.584;2024-02-26T12:51:52;3.80;;;1.55;;
51686;SDS011;37774;52.192;4.584;2024-02-26T12:54:37;9.30;;;2.53;;
51686;SDS011;37774;52.192;4.584;2024-02-26T12:57:22;6.72;;;1.88;;
51686;SDS011;37774;52.192;4.584;2024-02-26T13:00:08;5.07;;;2.15;;
51686;SDS011;37774;52.192;4.584;2024-02-26T13:02:56;2.15;;;1.10;;
51686;SDS011;37774;52.192;4.584;2024-02-26T13:05:41;3.15;;;1.52;;
51686;SDS011;37774;52.192;4.584;2024-02-26T13:08:28;5.43;;;1.83;;
51686;SDS011;37774;52.192;4.584;2024-02-26T13:11:13;3.05;;;1.85;;
51686;SDS011;37774;52.192;4.584;2024-02-26T13:13:58;2.30;;;1.38;;
51686;SDS011;37774;52.192;4.584;2024-02-26T13:16:43;5.35;;;1.55;;
51686;SDS011;37774;52.192;4.584;2024-02-26T13:19:28;4.60;;;1.90;;
51686;SDS011;37774;52.192;4.584;2024-02-26T13:22:13;3.30;;;1.88;;
51686;SDS011;37774;52.192;4.584;2024-02-26T13:25:00;5.28;;;1.95;;
51686;SDS011;37774;52.192;4.584;2024-02-26T13:27:47;7.63;;;1.77;;
51686;SDS011;37774;52.192;4.584;2024-02-26T13:30:31;3.95;;;1.65;;
51686;SDS011;37774;52.192;4.584;2024-02-26T13:33:16;1.55;;;1.38;;
51686;SDS011;37774;52.192;4.584;2024-02-26T13:36:02;4.10;;;1.00;;
51686;SDS011;37774;52.192;4.584;2024-02-26T13:38:51;4.25;;;1.80;;
51686;SDS011;37774;52.192;4.584;2024-02-26T13:41:37;5.00;;;1.70;;
51686;SDS011;37774;52.192;4.584;2024-02-26T13:44:25;6.75;;;1.77;;
51686;SDS011;37774;52.192;4.584;2024-02-26T13:47:10;2.20;;;1.08;;
51686;SDS011;37774;52.192;4.584;2024-02-26T13:49:55;6.22;;;1.67;;
51686;SDS011;37774;52.192;4.584;2024-02-26T13:52:40;5.93;;;1.77;;
51686;SDS011;37774;52.192;4.584;2024-02-26T13:55:25;3.03;;;1.52;;
51686;SDS011;37774;52.192;4.584;2024-02-26T13:58:13;7.22;;;1.73;;
51686;SDS011;37774;52.192;4.584;2024-02-26T14:00:58;2.22;;;1.02;;
51686;SDS011;37774;52.192;4.584;2024-02-26T14:03:46;3.35;;;1.95;;
51686;SDS011;37774;52.192;4.584;2024-02-26T14:06:32;2.70;;;1.15;;
51686;SDS011;37774;52.192;4.584;2024-02-26T14:09:17;3.50;;;1.25;;
51686;SDS011;37774;52.192;4.584;2024-02-26T14:12:03;1.90;;;1.52;;
51686;SDS011;37774;52.192;4.584;2024-02-26T14:14:50;10.40;;;2.20;;
51686;SDS011;37774;52.192;4.584;2024-02-26T14:17:36;3.72;;;1.95;;
51686;SDS011;37774;52.192;4.584;2024-02-26T14:20:21;7.03;;;1.17;;
51686;SDS011;37774;52.192;4.584;2024-02-26T14:23:07;3.28;;;1.23;;
51686;SDS011;37774;52.192;4.584;2024-02-26T14:25:52;4.95;;;2.67;;
51686;SDS011;37774;52.192;4.584;2024-02-26T14:28:37;2.88;;;1.60;;
51686;SDS011;37774;52.192;4.584;2024-02-26T14:31:24;5.82;;;2.65;;
51686;SDS011;37774;52.192;4.584;2024-02-26T14:34:09;3.05;;;1.67;;
51686;SDS011;37774;52.192;4.584;2024-02-26T14:36:54;3.85;;;1.98;;
51686;SDS011;37774;52.192;4.584;2024-02-26T14:39:39;5.47;;;2.72;;
51686;SDS011;37774;52.192;4.584;2024-02-26T14:42:24;5.50;;;2.45;;
51686;SDS011;37774;52.192;4.584;2024-02-26T14:45:09;4.75;;;2.13;;
51686;SDS011;37774;52.192;4.584;2024-02-26T14:47:56;5.72;;;2.22;;
51686;SDS011;37774;52.192;4.584;2024-02-26T14:50:41;2.97;;;1.60;;
51686;SDS011;37774;52.192;4.584;2024-02-26T14:53:26;3.50;;;2.15;;
51686;SDS011;37774;52.192;4.584;2024-02-26T14:56:11;4.88;;;2.63;;
51686;SDS011;37774;52.192;4.584;2024-02-26T14:58:56;2.97;;;2.15;;
51686;SDS011;37774;52.192;4.584;2024-02-26T15:01:41;7.50;;;2.53;;
51686;SDS011;37774;52.192;4.584;2024-02-26T15:04:27;4.93;;;2.35;;
51686;SDS011;37774;52.192;4.584;2024-02-26T15:07:12;5.97;;;2.90;;
51686;SDS011;37774;52.192;4.584;2024-02-26T15:09:57;5.88;;;2.58;;
51686;SDS011;37774;52.192;4.584;2024-02-26T15:12:44;9.88;;;2.35;;
51686;SDS011;37774;52.192;4.584;2024-02-26T15:15:29;5.18;;;2.22;;
51686;SDS011;37774;52.192;4.584;2024-02-26T15:18:15;4.25;;;2.10;;
51686;SDS011;37774;52.192;4.584;2024-02-26T15:21:02;6.82;;;2.42;;
51686;SDS011;37774;52.192;4.584;2024-02-26T15:23:47;14.45;;;3.05;;
51686;SDS011;37774;52.192;4.584;2024-02-26T15:26:34;9.00;;;2.05;;
51686;SDS011;37774;52.192;4.584;2024-02-26T15:29:19;6.72;;;2.42;;
51686;SDS011;37774;52.192;4.584;2024-02-26T15:32:04;12.13;;;2.83;;
51686;SDS011;37774;52.192;4.584;2024-02-26T15:34:49;7.45;;;2.38;;
51686;SDS011;37774;52.192;4.584;2024-02-26T15:37:36;8.55;;;2.40;;
51686;SDS011;37774;52.192;4.584;2024-02-26T15:40:21;17.42;;;2.60;;
51686;SDS011;37774;52.192;4.584;2024-02-26T15:43:06;12.43;;;2.75;;
51686;SDS011;37774;52.192;4.584;2024-02-26T15:45:51;4.80;;;2.67;;
51686;SDS011;37774;52.192;4.584;2024-02-26T15:48:36;4.68;;;2.38;;
51686;SDS011;37774;52.192;4.584;2024-02-26T15:51:22;9.07;;;2.83;;
51686;SDS011;37774;52.192;4.584;2024-02-26T15:54:09;7.10;;;2.42;;
51686;SDS011;37774;52.192;4.584;2024-02-26T15:56:54;6.13;;;2.25;;
51686;SDS011;37774;52.192;4.584;2024-02-26T15:59:40;3.10;;;2.22;;
51686;SDS011;37774;52.192;4.584;2024-02-26T16:02:25;8.60;;;2.30;;
51686;SDS011;37774;52.192;4.584;2024-02-26T16:05:10;11.02;;;2.60;;
51686;SDS011;37774;52.192;4.584;2024-02-26T16:07:57;12.93;;;2.65;;
51686;SDS011;37774;52.192;4.584;2024-02-26T16:10:45;2.97;;;2.22;;
51686;SDS011;37774;52.192;4.584;2024-02-26T16:13:30;5.82;;;2.70;;
51686;SDS011;37774;52.192;4.584;2024-02-26T16:16:16;3.22;;;2.13;;
51686;SDS011;37774;52.192;4.584;2024-02-26T16:19:05;4.28;;;2.15;;
51686;SDS011;37774;52.192;4.584;2024-02-26T16:21:50;4.05;;;2.13;;
51686;SDS011;37774;52.192;4.584;2024-02-26T16:24:36;7.00;;;1.70;;
51686;SDS011;37774;52.192;4.584;2024-02-26T16:27:22;3.60;;;1.80;;
51686;SDS011;37774;52.192;4.584;2024-02-26T16:30:08;4.18;;;2.38;;
51686;SDS011;37774;52.192;4.584;2024-02-26T16:32:53;3.58;;;2.13;;
51686;SDS011;37774;52.192;4.584;2024-02-26T16:35:38;8.23;;;1.95;;